NCAR-RAP Real-Time Weather Data

Output produced by METARs form (01 December 2020  18:01 UTC)
found at http://weather.rap.ucar.edu/surface/
 
KJAX 011656Z 30010G20KT 10SM FEW030 08/M03 A3019 RMK AO2 SLP222 T00781033 $
KJAX 011556Z 29011G19KT 10SM FEW030 07/M02 A3021 RMK AO2 SLP229 T00671022 $
KJAX 011456Z 31012KT 10SM FEW025 05/M03 A3021 RMK AO2 SLP231 T00501028 51024 $
KJAX 011356Z 31011KT 10SM FEW020 03/M02 A3020 RMK AO2 SLP226 T00331022 $
KJAX 011256Z 28011KT 10SM FEW040 02/M02 A3018 RMK AO2 SLP221 T00221022 $
KJAX 011156Z 29009KT 10SM FEW040 02/M02 A3014 RMK AO2 SLP208 T00171022 10067 20017 53026 $
KJAX 011056Z 28011G18KT 10SM CLR 02/M02 A3012 RMK AO2 SLP198 T00221022 $
KJAX 010956Z 29014G19KT 10SM CLR 03/M02 A3009 RMK AO2 SLP189 T00331022 $
KJAX 010856Z 29010KT 10SM CLR 04/M02 A3007 RMK AO2 SLP182 T00391022 53013 $
KJAX 010756Z 28010KT 10SM CLR 04/M02 A3005 RMK AO2 SLP177 T00441017 $
KJAX 010656Z 27011KT 10SM FEW250 06/M01 A3004 RMK AO2 SLP171 T00561006 $
KJAX 010556Z 29011KT 10SM FEW050 07/M01 A3003 RMK AO2 SLP169 T00671006 10128 20067 51018 $
KJAX 010456Z 30017G23KT 10SM SCT045 08/00 A3003 RMK AO2 PK WND 28029/0411 SLP168 T00780000 402060078 $
KJAX 010356Z 26013G21KT 10SM BKN049 09/03 A3001 RMK AO2 SLP161 T00940028 $